createdAt,value
2022-09-05T00:02:05.025Z,17.21
2022-09-05T00:04:56.167Z,17.23
2022-09-05T00:07:58.851Z,17.23
2022-09-05T00:11:16.758Z,17.24
2022-09-05T00:13:40.012Z,17.21
2022-09-05T00:16:30.157Z,17.21
2022-09-05T00:24:19.570Z,17.20
2022-09-05T00:24:25.191Z,17.20
2022-09-05T00:25:00.763Z,17.20
2022-09-05T00:27:52.757Z,17.23
2022-09-05T00:31:08.779Z,17.23
2022-09-05T00:33:16.669Z,17.22
2022-09-05T00:36:02.034Z,17.19
2022-09-05T00:38:36.976Z,17.16
2022-09-05T00:41:07.348Z,17.16
2022-09-05T00:43:37.089Z,17.18
2022-09-05T00:46:10.509Z,17.23
2022-09-05T00:48:51.426Z,17.29
2022-09-05T00:51:37.113Z,17.33
2022-09-05T00:54:07.590Z,17.40
2022-09-05T00:56:53.100Z,17.47
2022-09-05T00:59:24.349Z,17.55
2022-09-05T01:01:53.535Z,17.61
2022-09-05T01:04:29.755Z,17.69
2022-09-05T01:07:02.741Z,17.70
2022-09-05T01:09:29.899Z,17.79
2022-09-05T01:12:06.641Z,17.81
2022-09-05T01:14:43.790Z,17.82
2022-09-05T01:17:10.747Z,17.83
2022-09-05T01:19:49.818Z,17.84
2022-09-05T01:22:26.837Z,17.79
2022-09-05T01:25:08.782Z,17.72
2022-09-05T01:29:13.987Z,17.66
2022-09-05T01:30:47.933Z,17.62
2022-09-05T01:33:33.919Z,17.59
2022-09-05T01:36:07.810Z,17.55
2022-09-05T01:39:33.866Z,17.53
2022-09-05T01:41:48.872Z,17.51
2022-09-05T01:44:19.205Z,17.49
2022-09-05T01:47:29.537Z,17.48
2022-09-05T01:50:01.013Z,17.46
2022-09-05T01:52:57.775Z,17.41
2022-09-05T01:55:34.915Z,17.33
2022-09-05T01:58:26.290Z,17.29
2022-09-05T02:01:30.104Z,17.25
2022-09-05T02:04:07.574Z,17.21
2022-09-05T02:06:40.431Z,17.16
2022-09-05T02:09:28.673Z,17.14
2022-09-05T02:11:55.545Z,17.11
2022-09-05T02:14:48.840Z,17.09
2022-09-05T02:17:33.473Z,17.10
2022-09-05T02:20:23.580Z,17.08
2022-09-05T02:22:58.544Z,17.06
2022-09-05T02:26:00.375Z,17.04
2022-09-05T02:28:35.525Z,17.02
2022-09-05T02:31:20.264Z,16.98
2022-09-05T02:34:01.717Z,16.94
2022-09-05T02:36:32.663Z,16.90
2022-09-05T02:45:00.074Z,16.87
2022-09-05T02:45:14.816Z,16.88
2022-09-05T02:45:23.799Z,16.89
2022-09-05T02:47:57.280Z,16.87
2022-09-05T02:57:29.509Z,16.90
2022-09-05T02:57:29.970Z,16.91
2022-09-05T02:57:33.108Z,16.90
2022-09-05T02:59:16.577Z,16.87
2022-09-05T03:02:23.144Z,16.83
2022-09-05T03:05:04.339Z,16.80
2022-09-05T03:07:42.066Z,16.73
2022-09-05T03:10:53.352Z,16.72
2022-09-05T03:13:15.815Z,16.67
2022-09-05T03:15:46.091Z,16.66
2022-09-05T03:18:22.330Z,16.67
2022-09-05T03:20:52.685Z,16.65
2022-09-05T03:23:30.719Z,16.63
2022-09-05T03:26:19.176Z,16.61
2022-09-05T03:29:04.652Z,16.56
2022-09-05T03:31:57.878Z,16.49
2022-09-05T03:34:24.714Z,16.44
2022-09-05T03:36:51.779Z,16.45
2022-09-05T03:39:37.535Z,16.43
2022-09-05T03:42:14.763Z,16.36
2022-09-05T03:44:51.199Z,16.33
2022-09-05T03:47:27.169Z,16.33
2022-09-05T03:56:12.114Z,16.32
2022-09-05T03:57:18.318Z,16.29
2022-09-05T03:57:24.260Z,16.28
2022-09-05T03:58:59.391Z,16.29
2022-09-05T04:04:15.527Z,16.27
2022-09-05T04:08:19.425Z,16.20
2022-09-05T04:08:19.554Z,16.20
2022-09-05T04:10:15.860Z,16.19
2022-09-05T04:13:01.929Z,16.19
2022-09-05T04:15:29.381Z,16.16
2022-09-05T04:18:04.114Z,16.16
2022-09-05T04:20:40.338Z,16.16
2022-09-05T04:23:31.699Z,16.15
2022-09-05T04:26:11.409Z,16.17
2022-09-05T04:28:53.851Z,16.20
2022-09-05T04:31:25.062Z,16.22
2022-09-05T04:34:10.683Z,16.27
2022-09-05T04:36:40.100Z,16.29
2022-09-05T04:39:09.782Z,16.32
2022-09-05T04:41:42.332Z,16.30
2022-09-05T04:44:17.046Z,16.27
2022-09-05T04:46:47.381Z,16.30
2022-09-05T04:49:27.597Z,16.41
2022-09-05T04:52:01.050Z,16.50
2022-09-05T04:54:32.510Z,16.68
2022-09-05T04:57:13.665Z,16.84
2022-09-05T05:05:58.590Z,16.87
2022-09-05T05:06:10.851Z,16.87
2022-09-05T05:06:18.136Z,16.93
2022-09-05T05:08:31.750Z,17.00
2022-09-05T05:16:06.321Z,17.02
2022-09-05T05:18:07.219Z,17.17
2022-09-05T05:18:15.154Z,17.08
2022-09-05T05:20:43.056Z,17.27
2022-09-05T05:23:14.999Z,17.33
2022-09-05T05:28:23.895Z,17.50
2022-09-05T05:30:58.254Z,17.56
2022-09-05T05:33:29.405Z,17.60
2022-09-05T05:35:59.689Z,17.73
2022-09-05T05:38:40.199Z,17.84
2022-09-05T05:41:13.098Z,18.00
2022-09-05T05:43:46.105Z,18.18
2022-09-05T05:46:15.854Z,18.31
2022-09-05T05:48:48.430Z,18.40
2022-09-05T05:52:02.053Z,18.55
2022-09-05T05:54:32.400Z,19.51
2022-09-05T05:57:18.233Z,20.45
2022-09-05T05:59:57.644Z,21.27
2022-09-05T06:02:35.077Z,22.22
2022-09-05T06:05:37.274Z,22.68
2022-09-05T06:14:27.490Z,23.05
2022-09-05T06:14:49.019Z,23.59
2022-09-05T06:14:58.418Z,23.64
2022-09-05T06:17:10.308Z,23.73
2022-09-05T06:22:04.714Z,23.87
2022-09-05T06:22:43.454Z,24.10
2022-09-05T06:25:29.342Z,23.93
2022-09-05T06:28:18.455Z,23.78
2022-09-05T06:31:27.615Z,24.22
2022-09-05T06:33:57.287Z,24.37
2022-09-05T06:36:27.310Z,24.49
2022-09-05T06:39:13.278Z,24.46
2022-09-05T06:41:43.185Z,24.40
2022-09-05T06:44:16.927Z,24.57
2022-09-05T06:46:55.137Z,24.14
2022-09-05T06:49:45.832Z,24.25
2022-09-05T06:52:32.199Z,24.78
2022-09-05T06:55:00.197Z,25.37
2022-09-05T06:57:33.770Z,25.87
2022-09-05T07:00:06.976Z,25.82
2022-09-05T07:03:08.062Z,26.06
2022-09-05T07:05:45.068Z,26.45
2022-09-05T07:08:33.396Z,26.85
2022-09-05T07:11:20.388Z,26.76
2022-09-05T07:13:59.783Z,26.57
2022-09-05T07:16:37.991Z,26.79
2022-09-05T07:19:15.568Z,26.59
2022-09-05T07:21:43.117Z,26.22
2022-09-05T07:24:22.599Z,26.23
2022-09-05T07:27:03.331Z,26.63
2022-09-05T07:29:35.235Z,26.97
2022-09-05T07:32:03.515Z,27.21
2022-09-05T07:34:31.974Z,27.27
2022-09-05T07:37:15.422Z,27.29
2022-09-05T07:39:46.147Z,27.27
2022-09-05T07:42:15.845Z,27.41
2022-09-05T07:44:47.945Z,27.57
2022-09-05T07:47:23.960Z,27.66
2022-09-05T07:50:36.469Z,27.52
2022-09-05T07:56:54.863Z,27.66
2022-09-05T07:57:08.675Z,27.48
2022-09-05T07:58:20.440Z,27.85
2022-09-05T08:00:51.619Z,27.94
2022-09-05T08:03:23.271Z,27.57
2022-09-05T08:05:54.149Z,27.55
2022-09-05T08:08:27.619Z,27.49
2022-09-05T08:11:25.743Z,27.36
2022-09-05T08:13:52.494Z,27.46
2022-09-05T08:16:21.695Z,27.47
2022-09-05T08:19:08.037Z,27.51
2022-09-05T08:21:43.074Z,27.65
2022-09-05T08:24:14.090Z,27.62
2022-09-05T08:26:46.909Z,27.58
2022-09-05T08:29:14.663Z,27.66
2022-09-05T08:31:52.729Z,27.61
2022-09-05T08:34:34.042Z,27.51
2022-09-05T08:37:12.599Z,27.44
2022-09-05T08:39:43.443Z,27.52
2022-09-05T08:42:16.071Z,27.71
2022-09-05T08:46:47.736Z,27.59
2022-09-05T08:47:58.329Z,27.49
2022-09-05T08:50:26.926Z,27.36
2022-09-05T08:52:56.811Z,27.44
2022-09-05T08:55:42.286Z,27.54
2022-09-05T08:58:28.002Z,27.69
2022-09-05T09:01:17.827Z,27.52
2022-09-05T09:03:57.137Z,27.40
2022-09-05T09:06:28.288Z,27.16
2022-09-05T09:08:55.915Z,27.02
2022-09-05T09:11:25.815Z,27.06
2022-09-05T09:14:01.761Z,27.32
2022-09-05T09:16:40.800Z,27.42
2022-09-05T09:19:15.393Z,27.33
2022-09-05T09:21:42.639Z,27.35
2022-09-05T09:24:16.828Z,27.17
2022-09-05T09:27:07.699Z,26.80
2022-09-05T09:29:37.560Z,26.56
2022-09-05T09:32:08.578Z,26.45
2022-09-05T09:34:39.540Z,26.31
2022-09-05T09:37:49.533Z,26.04
2022-09-05T09:40:36.623Z,25.95
2022-09-05T09:43:08.910Z,26.11
2022-09-05T09:45:44.950Z,26.14
2022-09-05T09:48:21.993Z,26.08
2022-09-05T09:51:07.407Z,26.31
2022-09-05T09:54:04.243Z,26.48
2022-09-05T09:56:45.573Z,26.42
2022-09-05T09:59:15.989Z,26.42
2022-09-05T10:01:53.625Z,26.22
2022-09-05T10:10:38.942Z,26.08
2022-09-05T10:10:51.125Z,26.16
2022-09-05T10:11:22.508Z,26.23
2022-09-05T10:13:48.622Z,26.36
2022-09-05T10:16:34.531Z,26.54
2022-09-05T10:19:01.355Z,26.67
2022-09-05T10:21:47.363Z,26.77
2022-09-05T10:24:14.161Z,26.54
2022-09-05T10:26:56.632Z,26.26
2022-09-05T10:29:42.274Z,25.99
2022-09-05T10:35:04.735Z,25.79
2022-09-05T10:35:22.572Z,25.79
2022-09-05T10:37:57.504Z,25.82
2022-09-05T10:40:27.144Z,25.83
2022-09-05T10:43:10.286Z,25.76
2022-09-05T10:45:43.254Z,25.67
2022-09-05T10:48:29.373Z,25.74
2022-09-05T10:51:00.983Z,25.59
2022-09-05T10:53:39.030Z,25.44
2022-09-05T10:56:09.121Z,25.36
2022-09-05T11:02:11.557Z,25.26
2022-09-05T11:02:21.203Z,25.23
2022-09-05T11:04:46.394Z,25.36
2022-09-05T11:07:30.024Z,25.47
2022-09-05T11:10:17.432Z,25.46
2022-09-05T11:13:06.031Z,25.54
2022-09-05T11:15:36.400Z,25.62
2022-09-05T11:18:10.608Z,25.73
2022-09-05T11:20:41.070Z,25.85
2022-09-05T11:23:31.162Z,26.00
2022-09-05T11:26:01.012Z,26.04
2022-09-05T11:28:58.145Z,25.94
2022-09-05T11:31:40.612Z,25.88
2022-09-05T11:39:53.715Z,25.72
2022-09-05T11:40:10.854Z,25.81
2022-09-05T11:40:29.977Z,25.66
2022-09-05T11:43:09.723Z,25.64
2022-09-05T11:45:36.789Z,25.61
2022-09-05T11:48:22.571Z,25.53
2022-09-05T11:50:56.644Z,25.45
2022-09-05T11:53:42.345Z,25.36
2022-09-05T11:56:18.260Z,25.38
2022-09-05T11:58:46.988Z,25.35
2022-09-05T12:01:41.152Z,25.39
2022-09-05T12:04:26.897Z,25.52
2022-09-05T12:07:24.102Z,25.54
2022-09-05T12:09:59.554Z,25.49
2022-09-05T12:12:43.368Z,25.42
2022-09-05T12:15:28.041Z,25.36
2022-09-05T12:18:19.004Z,25.30
2022-09-05T12:20:53.257Z,25.32
2022-09-05T12:23:39.909Z,25.37
2022-09-05T12:27:40.031Z,25.43
2022-09-05T12:29:32.727Z,25.44
2022-09-05T12:33:14.815Z,25.54
2022-09-05T12:36:04.061Z,25.65
2022-09-05T12:40:56.525Z,25.69
2022-09-05T12:41:35.012Z,25.81
2022-09-05T12:44:38.011Z,25.90
2022-09-05T12:46:34.062Z,25.99
2022-09-05T12:49:10.490Z,25.98
2022-09-05T12:51:46.795Z,25.88
2022-09-05T12:54:33.798Z,25.87
2022-09-05T13:00:36.279Z,25.88
2022-09-05T13:02:59.552Z,25.81
2022-09-05T13:03:28.152Z,25.74
2022-09-05T13:05:58.588Z,25.67
2022-09-05T13:08:29.798Z,25.68
2022-09-05T13:14:49.766Z,25.72
2022-09-05T13:14:59.363Z,25.68
2022-09-05T13:16:44.615Z,25.59
2022-09-05T13:19:21.786Z,25.53
2022-09-05T13:21:52.798Z,25.49
2022-09-05T13:24:34.222Z,25.46
2022-09-05T13:27:07.265Z,25.39
2022-09-05T13:30:59.444Z,25.37
2022-09-05T13:37:55.594Z,25.39
2022-09-05T13:38:15.761Z,25.42
2022-09-05T13:38:49.198Z,25.47
2022-09-05T13:41:48.759Z,25.49
2022-09-05T13:44:27.030Z,25.49
2022-09-05T13:47:29.341Z,25.49
2022-09-05T13:50:04.993Z,25.48
2022-09-05T13:52:40.298Z,25.45
2022-09-05T13:55:09.393Z,25.44
2022-09-05T13:57:40.610Z,25.42
2022-09-05T14:00:26.950Z,25.38
2022-09-05T14:03:31.695Z,25.35
2022-09-05T14:06:36.635Z,25.30
2022-09-05T14:12:01.711Z,25.26
2022-09-05T14:20:27.533Z,25.20
2022-09-05T14:23:20.917Z,25.16
2022-09-05T14:25:52.346Z,25.16
2022-09-05T14:28:27.927Z,25.19
2022-09-05T14:35:16.428Z,25.20
2022-09-05T14:37:39.368Z,25.20
2022-09-05T14:37:50.981Z,25.19
2022-09-05T14:40:30.340Z,25.19
2022-09-05T14:43:14.048Z,25.22
2022-09-05T14:46:04.729Z,25.23
2022-09-05T14:49:10.930Z,25.25
2022-09-05T14:51:44.340Z,25.28
2022-09-05T14:54:11.778Z,25.32
2022-09-05T15:00:52.413Z,25.35
2022-09-05T15:02:53.271Z,25.31
2022-09-05T15:03:00.104Z,25.25
2022-09-05T15:05:29.915Z,25.28
2022-09-05T15:08:16.242Z,25.31
2022-09-05T15:12:24.051Z,25.30
2022-09-05T15:13:46.363Z,25.29
2022-09-05T15:16:15.334Z,25.33
2022-09-05T15:18:45.650Z,25.37
2022-09-05T15:21:33.243Z,25.39
2022-09-05T15:24:13.552Z,25.46
2022-09-05T15:26:48.445Z,25.56
2022-09-05T15:29:25.086Z,25.53
2022-09-05T15:32:09.494Z,25.49
2022-09-05T15:34:38.733Z,25.40
2022-09-05T15:37:25.972Z,25.32
2022-09-05T15:40:22.590Z,25.25
2022-09-05T15:42:58.006Z,25.19
2022-09-05T15:45:33.781Z,25.16
2022-09-05T15:48:06.613Z,25.10
2022-09-05T15:50:43.526Z,25.09
2022-09-05T15:53:13.588Z,25.09
2022-09-05T15:55:50.390Z,25.08
2022-09-05T15:58:27.295Z,25.06
2022-09-05T16:01:11.283Z,24.97
2022-09-05T16:04:38.071Z,24.98
2022-09-05T16:10:30.752Z,24.98
2022-09-05T16:10:47.147Z,24.98
2022-09-05T16:12:28.505Z,24.96
2022-09-05T16:16:20.128Z,24.95
2022-09-05T16:23:19.449Z,24.91
2022-09-05T16:23:33.601Z,24.89
2022-09-05T16:23:53.216Z,24.90
2022-09-05T16:26:32.145Z,24.85
2022-09-05T16:29:01.649Z,24.82
2022-09-05T16:31:35.058Z,24.81
2022-09-05T16:34:08.414Z,24.79
2022-09-05T16:37:04.505Z,24.75
2022-09-05T16:39:37.470Z,24.73
2022-09-05T16:42:12.824Z,24.70
2022-09-05T16:44:49.401Z,24.67
2022-09-05T16:47:36.652Z,24.63
2022-09-05T16:50:16.605Z,24.61
2022-09-05T16:52:53.198Z,24.55
2022-09-05T16:55:29.191Z,24.51
2022-09-05T16:58:01.928Z,24.46
2022-09-05T17:01:05.920Z,24.40
2022-09-05T17:03:44.036Z,24.32
2022-09-05T17:06:25.891Z,24.28
2022-09-05T17:09:12.607Z,24.21
2022-09-05T17:11:41.969Z,24.14
2022-09-05T17:14:34.100Z,24.07
2022-09-05T17:17:20.238Z,24.02
2022-09-05T17:20:07.157Z,23.97
2022-09-05T17:25:40.091Z,23.93
2022-09-05T17:29:27.747Z,23.84
2022-09-05T17:29:33.948Z,23.75
2022-09-05T17:32:00.552Z,23.65
2022-09-05T17:34:34.914Z,23.57
2022-09-05T17:37:26.699Z,23.50
2022-09-05T17:39:59.510Z,23.44
2022-09-05T17:42:36.573Z,23.40
2022-09-05T17:45:04.862Z,23.35
2022-09-05T17:47:36.322Z,23.28
2022-09-05T17:50:14.726Z,23.20
2022-09-05T17:53:25.769Z,23.14
2022-09-05T17:55:55.131Z,23.06
2022-09-05T17:58:28.233Z,23.02
2022-09-05T18:01:16.395Z,22.96
2022-09-05T18:03:46.206Z,22.91
2022-09-05T18:06:15.695Z,22.85
2022-09-05T18:08:45.914Z,22.81
2022-09-05T18:14:25.074Z,22.73
2022-09-05T18:17:36.468Z,22.72
2022-09-05T18:19:46.065Z,22.70
2022-09-05T18:22:25.786Z,22.66
2022-09-05T18:25:27.838Z,22.62
2022-09-05T18:28:05.278Z,22.59
2022-09-05T18:33:55.730Z,22.50
2022-09-05T18:35:54.081Z,22.43
2022-09-05T18:38:50.450Z,22.35
2022-09-05T18:41:11.040Z,22.27
2022-09-05T18:44:13.019Z,22.20
2022-09-05T18:46:50.566Z,22.14
2022-09-05T18:50:21.338Z,22.10
2022-09-05T18:52:07.796Z,22.05
2022-09-05T18:54:36.029Z,22.02
2022-09-05T18:57:24.162Z,21.99
2022-09-05T18:59:56.783Z,21.95
2022-09-05T19:02:41.094Z,21.92
2022-09-05T19:05:17.061Z,21.88
2022-09-05T19:07:48.232Z,21.85
2022-09-05T19:10:34.481Z,21.83
2022-09-05T19:13:14.984Z,21.83
2022-09-05T19:15:58.548Z,21.79
2022-09-05T19:19:00.929Z,21.77
2022-09-05T19:21:33.273Z,21.76
2022-09-05T19:24:02.743Z,21.73
2022-09-05T19:26:31.277Z,21.71
2022-09-05T19:36:50.377Z,21.63
2022-09-05T19:36:59.132Z,21.67
2022-09-05T19:36:59.346Z,21.61
2022-09-05T19:37:41.115Z,21.61
2022-09-05T19:46:03.420Z,21.59
2022-09-05T19:47:43.282Z,21.56
2022-09-05T19:47:45.142Z,21.59
2022-09-05T19:48:35.745Z,21.57
2022-09-05T19:51:16.464Z,21.55
2022-09-05T19:54:04.405Z,21.56
2022-09-05T19:56:36.859Z,21.53
2022-09-05T19:59:18.095Z,21.49
2022-09-05T20:01:45.795Z,21.48
2022-09-05T20:04:16.514Z,21.46
2022-09-05T20:06:43.375Z,21.50
2022-09-05T20:09:20.905Z,21.54
2022-09-05T20:11:52.868Z,21.55
2022-09-05T20:14:21.655Z,21.56
2022-09-05T20:16:50.337Z,21.57
2022-09-05T20:19:28.907Z,21.56
2022-09-05T20:21:59.077Z,21.55
2022-09-05T20:24:37.335Z,21.54
2022-09-05T20:27:05.040Z,21.53
2022-09-05T20:29:54.140Z,21.50
2022-09-05T20:32:34.996Z,21.50
2022-09-05T20:37:36.122Z,21.48
2022-09-05T20:43:12.570Z,21.45
2022-09-05T20:43:21.511Z,21.45
2022-09-05T20:44:04.543Z,21.40
2022-09-05T20:48:48.975Z,21.30
2022-09-05T20:54:12.985Z,21.24
2022-09-05T20:54:14.019Z,21.28
2022-09-05T20:55:39.135Z,21.20
2022-09-05T20:57:47.159Z,21.16
2022-09-05T21:00:16.463Z,21.13
2022-09-05T21:02:58.722Z,21.10
2022-09-05T21:05:28.062Z,21.06
2022-09-05T21:08:27.116Z,21.01
2022-09-05T21:10:56.537Z,20.94
2022-09-05T21:13:26.580Z,20.85
2022-09-05T21:15:54.798Z,20.78
2022-09-05T21:18:23.756Z,20.74
2022-09-05T21:21:14.641Z,20.66
2022-09-05T21:24:15.713Z,20.62
2022-09-05T21:26:44.270Z,20.63
2022-09-05T21:29:11.078Z,20.64
2022-09-05T21:31:49.166Z,20.66
2022-09-05T21:34:24.614Z,20.67
2022-09-05T21:37:06.606Z,20.70
2022-09-05T21:39:42.903Z,20.66
2022-09-05T21:47:33.231Z,20.64
2022-09-05T21:47:38.388Z,20.64
2022-09-05T21:48:03.563Z,20.68
2022-09-05T21:50:37.731Z,20.63
2022-09-05T21:54:40.227Z,20.63
2022-09-05T21:59:29.612Z,20.58
2022-09-05T21:59:32.964Z,20.53
2022-09-05T22:01:51.609Z,20.49
2022-09-05T22:04:15.351Z,20.48
2022-09-05T22:06:44.871Z,20.48
2022-09-05T22:09:13.952Z,20.42
2022-09-05T22:11:41.325Z,20.38
2022-09-05T22:14:09.246Z,20.38
2022-09-05T22:16:45.237Z,20.35
2022-09-05T22:19:22.666Z,20.39
2022-09-05T22:21:52.498Z,20.40
2022-09-05T22:24:19.963Z,20.38
2022-09-05T22:27:10.772Z,20.38
2022-09-05T22:29:35.490Z,20.39
2022-09-05T22:32:02.387Z,20.32
2022-09-05T22:34:29.344Z,20.28
2022-09-05T22:36:56.544Z,20.30
2022-09-05T22:39:36.658Z,20.39
2022-09-05T22:42:10.160Z,20.35
2022-09-05T22:44:38.700Z,20.41
2022-09-05T22:47:07.103Z,20.34
2022-09-05T22:49:36.424Z,20.32
2022-09-05T22:52:07.362Z,20.27
2022-09-05T22:54:37.646Z,20.24
2022-09-05T22:57:04.626Z,20.24
2022-09-05T22:59:31.480Z,20.15
2022-09-05T23:01:58.735Z,20.13
2022-09-05T23:04:26.061Z,20.15
2022-09-05T23:06:53.137Z,20.09
2022-09-05T23:09:20.756Z,20.06
2022-09-05T23:11:48.252Z,20.08
2022-09-05T23:14:15.094Z,20.06
2022-09-05T23:16:42.248Z,20.10
2022-09-05T23:19:09.095Z,20.12
2022-09-05T23:21:36.092Z,20.12
2022-09-05T23:24:03.692Z,20.15
2022-09-05T23:26:30.512Z,20.24
2022-09-05T23:28:57.359Z,20.18
2022-09-05T23:31:24.533Z,20.14
2022-09-05T23:33:52.045Z,20.13
2022-09-05T23:36:18.866Z,20.09
2022-09-05T23:38:46.140Z,20.02
2022-09-05T23:41:14.056Z,20.01
2022-09-05T23:43:40.966Z,19.95
2022-09-05T23:46:08.621Z,19.89
2022-09-05T23:48:35.607Z,19.83
2022-09-05T23:51:06.721Z,19.82
2022-09-05T23:53:33.864Z,19.75
2022-09-05T23:56:01.382Z,19.77
2022-09-05T23:58:29.185Z,19.78
